createdAt,value
2023-04-18T00:21:55.026Z,102691.27
2023-04-18T00:24:52.681Z,102693.19
2023-04-18T00:32:52.581Z,102691.86
2023-04-18T00:36:10.720Z,102689.70
2023-04-18T00:39:01.922Z,102691.84
2023-04-18T00:45:26.462Z,102687.13
2023-04-18T00:48:18.929Z,102686.48
2023-04-18T00:51:14.551Z,102689.27
2023-04-18T00:54:13.953Z,102691.20
2023-04-18T00:57:19.299Z,102685.30
2023-04-18T01:00:15.638Z,102683.36
2023-04-18T01:10:35.479Z,102682.95
2023-04-18T02:46:22.323Z,102675.45
2023-04-18T02:49:58.678Z,102679.76
2023-04-18T02:53:49.164Z,102678.14
2023-04-18T02:57:17.662Z,102679.12
2023-04-18T03:12:30.766Z,102663.27
2023-04-18T03:16:42.363Z,102659.48
2023-04-18T03:20:16.577Z,102659.05
2023-04-18T03:44:38.795Z,102652.93
2023-04-18T03:47:54.571Z,102657.42
2023-04-18T03:51:08.313Z,102652.58
2023-04-18T03:54:11.844Z,102652.14
2023-04-18T03:57:31.342Z,102653.45
2023-04-18T04:00:46.639Z,102657.22
2023-04-18T04:04:23.673Z,102655.61
2023-04-18T04:07:29.367Z,102654.73
2023-04-18T04:14:14.564Z,102647.98
2023-04-18T04:21:42.134Z,102651.54
2023-04-18T04:34:09.414Z,102649.53
2023-04-18T04:41:48.684Z,102651.77
2023-04-18T04:45:31.751Z,102646.11
2023-04-18T04:59:55.480Z,102653.31
2023-04-18T05:03:14.878Z,102653.95
2023-04-18T05:07:09.737Z,102657.89
2023-04-18T05:10:25.287Z,102658.59
2023-04-18T05:13:58.033Z,102655.63
2023-04-18T05:17:45.040Z,102654.25
2023-04-18T05:29:21.178Z,102658.23
2023-04-18T05:32:45.834Z,102658.85
2023-04-18T05:48:45.722Z,102676.52
2023-04-18T06:01:51.970Z,102680.64
2023-04-18T06:04:56.877Z,102688.64
2023-04-18T06:07:49.581Z,102683.81
2023-04-18T06:11:38.790Z,102689.41
2023-04-18T06:14:30.024Z,102685.20
2023-04-18T06:17:21.623Z,102691.31
2023-04-18T06:20:13.351Z,102693.93
2023-04-18T06:23:20.548Z,102700.48
2023-04-18T06:26:21.191Z,102702.95
2023-04-18T06:29:14.996Z,102703.96
2023-04-18T06:32:06.434Z,102707.10
2023-04-18T06:35:02.085Z,102706.56
2023-04-18T06:37:56.101Z,102710.04
2023-04-18T06:40:47.077Z,102710.69
2023-04-18T06:43:49.140Z,102710.04
2023-04-18T06:46:53.716Z,102711.16
2023-04-18T06:49:50.788Z,102712.82
2023-04-18T06:52:46.008Z,102710.21
2023-04-18T06:56:09.502Z,102709.63
2023-04-18T06:59:10.441Z,102713.84
2023-04-18T07:02:49.471Z,102712.22
2023-04-18T07:05:40.796Z,102709.41
2023-04-18T07:08:31.927Z,102715.81
2023-04-18T07:11:37.536Z,102716.47
2023-04-18T07:14:28.884Z,102716.40
2023-04-18T07:17:33.363Z,102716.48
2023-04-18T07:20:37.661Z,102719.39
2023-04-18T07:23:44.044Z,102719.54
2023-04-18T07:26:39.617Z,102720.39
2023-04-18T07:29:30.842Z,102718.55
2023-04-18T07:32:21.653Z,102722.94
2023-04-18T07:35:25.367Z,102726.93
2023-04-18T07:38:24.472Z,102729.06
2023-04-18T07:41:17.795Z,102731.35
2023-04-18T07:44:15.379Z,102734.29
2023-04-18T07:47:11.285Z,102736.14
2023-04-18T07:50:04.651Z,102736.32
2023-04-18T07:52:56.239Z,102739.94
2023-04-18T07:55:56.767Z,102741.64
2023-04-18T08:04:29.110Z,102752.26
2023-04-18T08:12:01.812Z,102741.79
2023-04-18T08:15:25.959Z,102740.52
2023-04-18T08:19:04.929Z,102743.35
2023-04-18T08:22:31.862Z,102739.17
2023-04-18T08:26:27.040Z,102745.80
2023-04-18T08:40:58.889Z,102748.45
2023-04-18T08:44:14.003Z,102752.16
2023-04-18T08:47:50.576Z,102751.04
2023-04-18T08:51:21.156Z,102748.57
2023-04-18T09:02:58.986Z,102735.97
2023-04-18T09:06:15.090Z,102734.83
2023-04-18T09:09:18.854Z,102734.02
2023-04-18T09:12:31.430Z,102731.11
2023-04-18T09:15:37.900Z,102727.52
2023-04-18T09:18:44.964Z,102727.88
2023-04-18T09:21:49.056Z,102723.96
2023-04-18T09:24:57.759Z,102724.45
2023-04-18T09:28:36.786Z,102719.35
2023-04-18T09:32:03.397Z,102713.11
2023-04-18T09:35:41.620Z,102710.70
2023-04-18T09:38:46.601Z,102712.52
2023-04-18T09:41:37.710Z,102708.98
2023-04-18T10:09:50.054Z,102707.37
2023-04-18T10:21:30.303Z,102708.79
2023-04-18T10:25:17.341Z,102708.39
2023-04-18T10:31:55.531Z,102706.20
2023-04-18T10:39:14.905Z,102707.61
2023-04-18T10:46:31.608Z,102709.48
2023-04-18T10:53:02.482Z,102703.17
2023-04-18T10:55:57.051Z,102704.69
2023-04-18T10:59:16.430Z,102707.38
2023-04-18T11:02:43.807Z,102707.96
2023-04-18T11:05:40.351Z,102704.70
2023-04-18T11:12:56.152Z,102702.19
2023-04-18T11:20:29.927Z,102700.08
2023-04-18T11:31:25.860Z,102708.94
2023-04-18T11:34:51.312Z,102708.19
2023-04-18T11:38:28.366Z,102703.64
2023-04-18T11:41:32.674Z,102699.78
2023-04-18T11:44:40.165Z,102700.49
2023-04-18T11:51:44.961Z,102694.88
2023-04-18T11:54:57.429Z,102695.14
2023-04-18T11:57:55.752Z,102698.63
2023-04-18T12:00:49.233Z,102694.64
2023-04-18T12:03:40.520Z,102699.08
2023-04-18T12:06:46.755Z,102692.48
2023-04-18T12:13:27.336Z,102684.13
2023-04-18T12:16:19.979Z,102679.14
2023-04-18T12:22:20.573Z,102677.20
2023-04-18T12:25:37.272Z,102676.29
2023-04-18T12:29:30.513Z,102672.23
2023-04-18T12:36:08.978Z,102671.64
2023-04-18T12:39:02.881Z,102676.07
2023-04-18T12:42:22.021Z,102673.18
2023-04-18T12:45:13.517Z,102680.14
2023-04-18T12:51:43.945Z,102679.63
2023-04-18T12:54:47.271Z,102680.11
2023-04-18T12:58:01.655Z,102686.14
2023-04-18T13:01:02.917Z,102688.64
2023-04-18T13:04:12.992Z,102690.84
2023-04-18T13:07:08.061Z,102683.84
2023-04-18T13:10:10.837Z,102682.68
2023-04-18T13:13:06.910Z,102684.11
2023-04-18T13:16:10.257Z,102678.72
2023-04-18T13:19:14.348Z,102683.58
2023-04-18T13:22:48.126Z,102686.79
2023-04-18T13:26:09.750Z,102683.94
2023-04-18T13:37:02.177Z,102686.27
2023-04-18T13:40:35.068Z,102691.31
2023-04-18T13:47:45.132Z,102696.09
2023-04-18T13:52:21.572Z,102699.59
2023-04-18T13:55:54.328Z,102703.01
2023-04-18T13:59:01.233Z,102703.52
2023-04-18T14:02:11.335Z,102699.40
2023-04-18T14:05:35.382Z,102697.56
2023-04-18T14:21:16.692Z,102693.02
2023-04-18T14:28:53.603Z,102679.28
2023-04-18T14:44:49.162Z,102682.16
2023-04-18T14:48:14.086Z,102686.52
2023-04-18T16:00:59.332Z,102646.72
2023-04-18T16:04:31.457Z,102645.04
2023-04-18T16:24:41.965Z,102623.38
2023-04-18T16:35:29.183Z,102625.08
2023-04-18T16:38:40.027Z,102624.40
2023-04-18T16:54:52.791Z,102626.41
2023-04-18T17:11:24.448Z,102625.98
2023-04-18T17:19:15.707Z,102629.94
2023-04-18T17:26:49.096Z,102632.46
2023-04-18T17:59:58.632Z,102614.74
2023-04-18T18:39:16.613Z,102601.76
2023-04-18T19:43:25.796Z,102604.40
2023-04-18T19:45:01.585Z,102602.90
2023-04-18T19:48:35.357Z,102603.63
2023-04-18T19:52:44.335Z,102604.90
2023-04-18T20:04:12.361Z,102604.10
2023-04-18T20:07:26.258Z,102608.17
2023-04-18T20:24:04.886Z,102600.58
2023-04-18T20:47:08.979Z,102589.44
2023-04-18T20:50:20.796Z,102587.81
2023-04-18T21:20:23.271Z,102595.40
2023-04-18T21:24:54.668Z,102587.41
2023-04-18T21:32:51.452Z,102588.91
2023-04-18T21:44:56.311Z,102582.16
2023-04-18T21:48:25.048Z,102575.81
2023-04-18T21:51:57.310Z,102571.14
2023-04-18T21:55:58.359Z,102564.48
2023-04-18T21:59:57.101Z,102558.48
2023-04-18T22:03:13.679Z,102563.73
2023-04-18T22:06:51.476Z,102571.33
2023-04-18T22:14:17.479Z,102580.06
2023-04-18T22:18:04.857Z,102587.13
2023-04-18T22:26:20.360Z,102584.82
2023-04-18T22:32:52.331Z,102585.92
2023-04-18T22:35:56.329Z,102590.12
2023-04-18T22:39:33.932Z,102595.08
2023-04-18T22:46:57.746Z,102608.30
2023-04-18T22:54:24.086Z,102604.07
2023-04-18T22:57:15.183Z,102603.57
2023-04-18T23:00:09.157Z,102601.69
2023-04-18T23:03:07.547Z,102599.08
2023-04-18T23:06:28.004Z,102601.61
2023-04-18T23:10:13.573Z,102601.75
2023-04-18T23:13:18.181Z,102600.90
2023-04-18T23:17:14.998Z,102598.86
2023-04-18T23:20:44.965Z,102597.42
2023-04-18T23:27:34.240Z,102597.19
2023-04-18T23:30:34.139Z,102598.55
2023-04-18T23:34:53.317Z,102583.94
2023-04-18T23:38:15.491Z,102582.52
2023-04-18T23:42:03.020Z,102581.68
2023-04-18T23:45:54.439Z,102580.70
2023-04-18T23:49:28.861Z,102583.88
2023-04-18T23:56:24.319Z,102588.08
2023-04-18T23:59:38.257Z,102591.18
